Tiempo atmosférico en la estación meteorológica de Hellín, Albacete (520 m.)



Fecha
DESCASC
Temp. máxima en grados centígrados (hora)
DESCASC
Temp. mínima en grados centígrados (hora)
DESCASC
Temp. media en grados centígrados
DESCASC
Racha de viento máxima en m/sg (hora)
DESCASC
Velocidad máxima media en intervalos de 10 minutos(hora)
DESCASC
Precipitaciones diarias en mm
DESCASC
Precipitaciones de 00:00 a 06:00 en mm
DESCASC
Precipitaciones de 06:00 a 12:00 en mm
DESCASC
Precipitaciones de 12:00 a 18:00 en mm
DESCASC
Precipitaciones de 18:00 a 24:00 en mm
DESCASC
18-11-2019 10.8 (14:30) 4.9 (08:40) 7.9 13.61 (10:30) 8.33 (10:20) 3.8 3.8 0 0 0
17-11-2019 12.5 (13:10) 2.9 (08:10) 7.7 11.11 (02:20) 6.94 (14:10) 2.2 0 0 0 2.2
16-11-2019 10.3 (16:10) 3.2 (07:20) 6.8 14.17 (15:10) 8.89 (15:10) 0 0 0 0 0
15-11-2019 10.4 (15:50) 4.3 (22:30) 7.3 15.56 (03:40) 9.17 (03:40) 0 0 0 0 0
14-11-2019 13.5 (12:20) 6.6 (00:00) 10 19.17 (12:30) 8.89 (16:30) 0 0 0 0 0
13-11-2019 18.1 (14:50) 8.5 (00:00) 13.3 20.56 (14:20) 11.39 (11:10) 1.1 1.1 0 0 0
12-11-2019 13.9 (16:20) 6 (00:00) 9.9 14.72 (02:10) 7.78 (02:10) 0 0 0 0 0
11-11-2019 13.1 (16:20) 5.3 (04:20) 9.2 16.39 (14:00) 9.72 (15:10) 0 0 0 0 0
10-11-2019 11.3 (14:00) 6.5 (00:00) 8.9 19.17 (13:30) 10.56 (13:30) 0.1 0.1 0 0 0
09-11-2019 15.9 (16:50) 5.5 (00:00) 10.7 12.22 (02:20) 6.67 (01:40) 1.9 0 0 0 1.9
08-11-2019 12.9 (14:20) 6 (00:00) 9.4 13.89 (16:00) 7.78 (15:20) 0 0 0 0 0
07-11-2019 18.4 (12:50) 7.2 (00:00) 12.8 13.33 (21:30) 7.5 (21:40) 0 0 0 0 0
06-11-2019 16.1 (15:30) 8.2 (00:00) 12.2 13.61 (06:10) 7.78 (08:00) 0 0 0 0 0
05-11-2019 16.1 (14:50) 11 (00:00) 13.6 16.94 (12:30) 9.44 (12:30) 0.1 0.1 0 0 0
04-11-2019 20.2 (13:40) 12.8 (00:00) 16.5 13.06 (12:50) 7.22 (11:20) 0 0 0 0 0
03-11-2019 20 (12:30) 14 (00:00) 17 21.39 (14:00) 12.22 (12:50) 0 0 0 0 0
02-11-2019 22.4 (13:30) 15.6 (00:00) 19 13.61 (16:10) 7.78 (00:20) 0 0 0 0 0
01-11-2019 23.9 (14:10) 15.7 (00:00) 19.8 12.5 (22:20) 7.5 (16:40) 0 0 0 0 0
31-10-2019 22.8 (15:20) 15.9 (23:40) 19.3 14.17 (14:10) 6.67 (15:20) 0 0 0 0 0
30-10-2019 22.6 (15:40) 12.2 (00:00) 17.4 9.17 (14:30) 4.72 (14:20) 0 0 0 0 0
29-10-2019 22.2 (15:00) 11.6 (00:00) 16.9 6.67 (16:30) 4.17 (21:20) 0 0 0 0 0
28-10-2019 21.6 (16:30) 12.8 (00:00) 17.2 3.33 (11:10) 1.67 (15:20) 0 0 0 0 0
27-10-2019 20.9 (16:30) 12.5 (00:00) 16.7 4.17 (13:40) 2.22 (17:40) 0 0 0 0 0
26-10-2019 24 (17:30) 9.9 (00:00) 16.9 4.72 (07:10) 3.06 (07:00) 0 0 0 0 0
25-10-2019 23.5 (16:40) 8.8 (00:00) 16.2 6.67 (12:20) 4.17 (12:00) 0 0 0 0 0
24-10-2019 16.7 (17:20) 8.7 (00:00) 12.7 12.78 (16:00) 6.67 (14:50) 0 0 0 0 0
23-10-2019 13.2 (13:50) 6.1 (00:00) 9.6 10.28 (16:20) 6.11 (16:20) 1.3 0.1 0 0 1.2
22-10-2019 11.6 (04:20) 8.6 (00:00) 10.1 9.44 (20:20) 4.72 (20:10) 40.1 1.5 28.5 6.8 3.3

Gráficas

Temp. máximas Temp. mínimas Temp. medias Precipitaciones Rachas de viento máximas Velocidades máximas media en intervalos de 10 minutos

Datos horarios

Fecha y hora oficial Temperatura (ºC) Velocidad del viento (km/h) Dirección del viento Racha (km/h) Dirección de racha Precipitación (mm) Presión (hPa) Tendencia (hPa) Humedad (%)
2019-11-20 23:00:00 6.2 0 Calma 5 Oeste 0 940.2 0.3 92
2019-11-20 22:00:00 7 2 Noroeste 9 Noroeste 0 940 0.2 89
2019-11-20 21:00:00 7.4 3 Oeste 12 Oeste 0 940.1 0.5 88
2019-11-20 20:00:00 7.6 7 Oeste 12 Noroeste 0.1 939.9 0.5 85
2019-11-20 19:00:00 8.3 6 Sur 10 Este 0.5 939.8 0.2 78
2019-11-20 18:00:00 9.7 6 Este 15 Este 0 939.6 -0.1 60
2019-11-20 17:00:00 11.4 0 Calma 6 Este 0 939.4 -0.9 40
2019-11-20 16:00:00 12.3 3 Nordeste 12 Este 0 939.6 -1.6 37
2019-11-20 15:00:00 12.2 4 Nordeste 12 Nordeste 0 939.7 -2.4 44
2019-11-20 14:00:00 11.9 4 Nordeste 10 Este 0 940.3 -2.7 44
2019-11-20 13:00:00 11.2 3 Este 11 Este 0 941.2 -1.8 49
2019-11-20 12:00:00 9.7 2 Nordeste 9 Norte 0 942.1 -0.7 60
2019-11-20 11:00:00 8.1 2 Nordeste 9 Este 0 943 0.4 66
2019-11-20 10:00:00 5.7 2 Noroeste 8 Noroeste 0 943 0.5 80
2019-11-20 09:00:00 2.4 4 Noroeste 6 Noroeste 0 942.8 -0.2 91
2019-11-20 08:00:00 1.4 5 Oeste 12 Oeste 0 942.6 -0.2 90
2019-11-20 07:00:00 1.6 0 Calma 5 Oeste 0 942.5 -1 89
2019-11-20 06:00:00 1.8 0 Calma 10 Oeste 0 943 -0.8 87
2019-11-20 05:00:00 3 5 Oeste 10 Oeste 0 942.8 -1.5 83
2019-11-20 04:00:00 3.8 0 Calma 13 Oeste 0 943.5 -1.2 79
2019-11-20 03:00:00 4.5 6 Oeste 10 Oeste 0 943.8 -1.4 77
2019-11-20 02:00:00 5 7 Oeste 11 Oeste 0 944.3 -1.2 77
2019-11-20 01:00:00 4.8 2 Noroeste 6 Sudoeste 0 944.7 -0.9 75
2019-11-20 00:00:00 5.9 2 Oeste 6 Sudoeste 0 945.2 -0.5 71
2019-11-19 23:00:00 6.4 0 Calma 5 Sudoeste 0 945.5 0 72
2019-11-19 22:00:00 6.5 0 Calma 9 Sur 0 945.6 0.5 69
2019-11-19 21:00:00 6.5 0 Calma 8 Oeste 0 945.7 0.8 66
2019-11-19 20:00:00 7.7 2 Oeste 16 Sudoeste 0 945.5 0.8 59
2019-11-19 19:00:00 8.3 9 Oeste 16 Sudoeste 0 945.1 0.2 54
2019-11-19 18:00:00 9.2 10 Oeste 21 Oeste 0 944.9 -0.1 49
2019-11-19 17:00:00 10.3 13 Oeste 27 Sudoeste 0 944.7 -1 46
2019-11-19 16:00:00 11.7 14 Sudoeste 30 Sudoeste 0 944.9 -1.6 44
2019-11-19 15:00:00 11.7 17 Sudoeste 29 Oeste 0 945 -2.3 44
2019-11-19 14:00:00 11.3 18 Oeste 30 Sudoeste 0 945.7 -1.8 46
2019-11-19 13:00:00 10.6 13 Sudoeste 30 Sudoeste 0 946.5 -1.3 48
2019-11-19 12:00:00 10 14 Sudoeste 30 Sudoeste 0 947.3 -0.2 51
2019-11-19 11:00:00 8.7 17 Sudoeste 34 Oeste 0 947.5 0.4 55
2019-11-19 10:00:00 7.4 7 Sudoeste 21 Sudoeste 0 947.8 1 61
2019-11-19 09:00:00 4.1 2 Noroeste 14 Oeste 0 947.5 0.9 72
2019-11-19 08:00:00 3.4 5 Oeste 17 Sudoeste 0 947.1 0.7 74
2019-11-19 07:00:00 3.3 10 Sudoeste 21 Sudoeste 0 946.8 0.5 75
2019-11-19 06:00:00 3.2 8 Sudoeste 19 Sudoeste 0 946.6 0.4 73
2019-11-19 05:00:00 4 6 Sudoeste 19 Oeste 0 946.4 -0.4 69
2019-11-19 04:00:00 5 10 Sudoeste 29 Oeste 0 946.3 -0.2 67
2019-11-19 03:00:00 4.8 19 Oeste 34 Sudoeste 0 946.2 -0.9 67
2019-11-19 02:00:00 6.1 18 Sudoeste 30 Sudoeste 0 946.8 0.1 64
2019-11-19 01:00:00 5.2 9 Oeste 26 Sudoeste 0 946.5 0.7 65
2019-11-19 00:00:00 5.7 12 Sudoeste 23 Sudoeste 0 947.1 1.6 65
2019-11-18 23:00:00 6.3 14 Sudoeste 31 Sudoeste 0 946.7 1.5 63
2019-11-18 22:00:00 6.7 14 Sudoeste 33 Sudoeste 0 945.8 1.2 63
2019-11-18 21:00:00 7 13 Sudoeste 23 Sudoeste 0 945.5 1.3 65
2019-11-18 20:00:00 7.2 12 Sudoeste 22 Sudoeste 0 945.2 1.5 63
2019-11-18 19:00:00 7.6 13 Sur 22 Sudoeste 0 944.6 1.5 58
2019-11-18 18:00:00 8.3 10 Sudoeste 29 Sudoeste 0 944.2 1.8 52
2019-11-18 17:00:00 9.9 17 Sudoeste 42 Sudoeste 0 943.7 1.3 47
2019-11-18 16:00:00 9.7 22 Sudoeste 48 Sudoeste 0 943.1 0.8 49
2019-11-18 15:00:00 10.4 23 Sudoeste 46 Oeste 0 942.4 0.1 51
2019-11-18 14:00:00 10 21 Sudoeste 42 Sudoeste 0 942.4 0.6 56
2019-11-18 13:00:00 10.2 23 Sudoeste 42 Oeste 0 942.3 1.3 57
2019-11-18 12:00:00 9.2 22 Sudoeste 43 Sudoeste 0 942.3 2.1 64
2019-11-18 11:00:00 8.1 26 Sudoeste 49 Oeste 0 941.8 1.9 68
2019-11-18 10:00:00 7 28 Sudoeste 44 Sudoeste 0 941 1.7 75
2019-11-18 09:00:00 5.5 9 Noroeste 19 Noroeste 0 940.2 1.1 89
2019-11-18 08:00:00 5.2 9 Oeste 30 Oeste 0 939.9 0.8 89
2019-11-18 07:00:00 6.1 15 Oeste 28 Oeste 0 939.3 0.5 89
2019-11-18 06:00:00 6.9 15 Oeste 33 Oeste 0 939.1 0.1 88
2019-11-18 05:00:00 7.3 15 Oeste 28 Noroeste 0 939.1 -0.3 89
2019-11-18 04:00:00 7.6 17 Oeste 28 Oeste 0 938.8 -0.7 93
2019-11-18 03:00:00 7.3 5 Sudoeste 26 Oeste 0.2 939 -1.2 98
2019-11-18 02:00:00 7.7 11 Noroeste 24 Oeste 0.3 939.4 -0.7 98
2019-11-18 01:00:00 7.5 3 Norte 13 Norte 3.3 939.5 -1.1 98
2019-11-18 00:00:00 7.8 9 Noroeste 13 Noroeste 1.8 940.2 -0.8 96
2019-11-17 23:00:00 8.4 0 Calma 11 Sudeste 0.4 940.1 -1.1 89
2019-11-17 22:00:00 8.8 4 Sudoeste 11 Oeste 0 940.6 -1.3 82
2019-11-17 21:00:00 8.4 4 Sudoeste 19 Sudoeste 0 941 -1.1 80
2019-11-17 20:00:00 8.4 12 Sudoeste 35 Sudoeste 0 941.2 -1.2 79
2019-11-17 19:00:00 9 19 Sudoeste 33 Sudoeste 0 941.9 -1 72
2019-11-17 18:00:00 9.2 10 Sur 31 Sur 0 942.1 -1 67
2019-11-17 17:00:00 10.5 14 Sudoeste 34 Sudoeste 0 942.4 -1.1 61
2019-11-17 16:00:00 10.8 17 Sudoeste 36 Sudoeste 0 942.9 -1.4 58
2019-11-17 15:00:00 11 21 Sur 39 Sudoeste 0 943.1 -2.4 57
2019-11-17 14:00:00 11.4 20 Sudoeste 37 Sudoeste 0 943.5 -2.5 55
2019-11-17 13:00:00 12.4 19 Sudoeste 33 Sudoeste 0 944.3 -1.1 51
2019-11-17 12:00:00 11.1 17 Sudoeste 31 Sur 0 945.5 0.1 53
2019-11-17 11:00:00 9.6 18 Sur 34 Sur 0 946 0.8 58
2019-11-17 10:00:00 7.9 13 Sudoeste 24 Sur 0 945.4 0.4 66
2019-11-17 09:00:00 4.7 11 Sur 18 Sudoeste 0 945.4 0.5 76
2019-11-17 08:00:00 3.1 6 Sur 17 Sur 0 945.2 0.3 74
2019-11-17 07:00:00 4.5 10 Sudoeste 27 Sudoeste 0 945 -0.1 70
2019-11-17 06:00:00 4.7 15 Sudoeste 32 Sudoeste 0 944.9 -0.5 70
2019-11-17 05:00:00 4.8 15 Sudoeste 30 Sudoeste 0 944.9 -0.5 68
2019-11-17 04:00:00 4.7 12 Sudoeste 32 Sudoeste 0 945.1 -0.6 68
2019-11-17 03:00:00 5.4 15 Sur 40 Sur 0 945.4 -0.2 67
2019-11-17 02:00:00 4 9 Sur 18 Sur 0 945.4 -0.5 73
2019-11-17 01:00:00 3.6 5 Sur 10 Sur 0 945.7 -0.2 72
2019-11-17 00:00:00 3.8 6 Sur 15 Sur 0 945.6 -0.2 72
2019-11-16 23:00:00 4.9 8 Sur 19 Sur 0 945.9 0.4 68
2019-11-16 22:00:00 4.5 5 Sudoeste 13 Sur 0 945.9 1 65
2019-11-16 21:00:00 5.4 9 Sur 20 Sur 0 945.8 1.4 62
2019-11-16 20:00:00 6.3 13 Sudoeste 24 Sudoeste 0 945.5 1.6 58
2019-11-16 19:00:00 7.5 13 Sudoeste 32 Sudoeste 0 944.9 1.8 53
2019-11-16 18:00:00 8.4 16 Sudoeste 37 Oeste 0 944.4 1.9 50
2019-11-16 17:00:00 9.8 16 Sudoeste 35 Sur 0 943.9 1.5 47
2019-11-16 16:00:00 10.1 22 Sudoeste 51 Sudoeste 0 943.1 0.3 44
2019-11-16 15:00:00 10 28 Sudoeste 46 Sudoeste 0 942.5 -0.5 45
2019-11-16 14:00:00 9.8 26 Sudoeste 51 Sudoeste 0 942.4 -0.3 48
2019-11-16 13:00:00 9.3 24 Sudoeste 46 Sudoeste 0 942.8 0.2 55
2019-11-16 12:00:00 8.2 23 Sudoeste 39 Sudoeste 0 943 1.5 59
2019-11-16 11:00:00 7.3 20 Sudoeste 37 Sudoeste 0 942.7 1.9 64
2019-11-16 10:00:00 6 18 Sudoeste 34 Oeste 0 942.6 2.3 70
2019-11-16 09:00:00 4.6 16 Sudoeste 41 Sudoeste 0 941.5 2.3 74
2019-11-16 08:00:00 3.8 19 Sudoeste 32 Sudoeste 0 940.8 2.3 77
2019-11-16 07:00:00 3.4 9 Oeste 30 Sudoeste 0 940.3 2.1 76
2019-11-16 06:00:00 4.2 15 Sudoeste 27 Oeste 0 939.2 1.3 74
2019-11-16 05:00:00 4.6 16 Sudoeste 26 Oeste 0 938.5 0.8 74
2019-11-16 04:00:00 4.2 12 Oeste 25 Oeste 0 938.2 0.4 76
2019-11-16 03:00:00 4.1 12 Oeste 28 Sudoeste 0 937.9 0.5 75
2019-11-16 02:00:00 4.6 14 Sudoeste 22 Oeste 0 937.7 0.5 75
2019-11-16 01:00:00 5 15 Sudoeste 33 Sudoeste 0 937.8 0.9 73
2019-11-16 00:00:00 5 18 Oeste 32 Sudoeste 0 937.4 1 73
2019-11-15 23:00:00 4.9 17 Oeste 28 Sudoeste 0 937.2 1 73
2019-11-15 22:00:00 4.9 14 Sudoeste 26 Oeste 0 936.9 1 71
2019-11-15 21:00:00 4.7 13 Sudoeste 21 Sudoeste 0 936.4 0.9 70
2019-11-15 20:00:00 5.2 13 Sudoeste 23 Sudoeste 0 936.2 1 67
2019-11-15 19:00:00 5.9 13 Sudoeste 23 Sudoeste 0 935.9 1.1 64
2019-11-15 18:00:00 6.9 11 Sudoeste 28 Sudoeste 0 935.5 0.6 59
2019-11-15 17:00:00 8.7 19 Sudoeste 33 Oeste 0 935.2 0.2 54
2019-11-15 16:00:00 9.7 17 Sudoeste 31 Sudoeste 0 934.8 -0.6 54
2019-11-15 15:00:00 9.1 17 Sur 34 Sudoeste 0 934.9 -1.3 56
2019-11-15 14:00:00 8.6 21 Sudoeste 35 Sudoeste 0 935 -1.1 56
2019-11-15 13:00:00 8.9 21 Sudoeste 37 Sudoeste 0 935.4 -0.1 58
2019-11-15 12:00:00 7.5 21 Sudoeste 32 Sur 0 936.2 1.2 62
2019-11-15 11:00:00 7.1 19 Sudoeste 37 Sudoeste 0 936.1 1.9 64
2019-11-15 10:00:00 7.1 18 Sudoeste 35 Sudoeste 0 935.5 1.7 64
2019-11-15 09:00:00 6.3 22 Sudoeste 36 Sudoeste 0 935 1.5 66
2019-11-15 08:00:00 6.1 21 Sudoeste 33 Sur 0 934.2 1 67
2019-11-15 07:00:00 6.1 16 Sur 30 Sur 0 933.8 1 67
2019-11-15 06:00:00 6.2 14 Sur 41 Sudoeste 0 933.5 1.3 66
2019-11-15 05:00:00 6.4 19 Sur 43 Sur 0 933.2 0.5 66
2019-11-15 04:00:00 7 24 Sur 56 Sur 0 932.8 -0.1 64
2019-11-15 03:00:00 7.1 24 Sur 44 Sudoeste 0 932.2 -0.9 66
2019-11-15 02:00:00 7.6 24 Sudoeste 40 Sur 0 932.7 -0.4 64
2019-11-15 01:00:00 7.3 16 Sur 38 Sur 0 932.9 0 63
2019-11-15 00:00:00 7.8 19 Sur 44 Sur 0 933.1 0.2 61
2019-11-14 23:00:00 8.1 15 Sur 50 Sur 0 933.1 0.2 59
2019-11-14 22:00:00 8.3 24 Sur 45 Sur 0 932.9 0.2 59
2019-11-14 21:00:00 8.2 23 Sur 46 Sur 0 932.9 0.4 59
2019-11-14 20:00:00 8.4 27 Sur 48 Sur 0 932.9 0.6 58
2019-11-14 19:00:00 7.9 18 Sur 32 Sur 0 932.7 0.2 63
2019-11-14 18:00:00 8.5 19 Sur 40 Sudeste 0 932.5 -0.4 60
2019-11-14 17:00:00 10.3 21 Sur 51 Sudoeste 0 932.3 -1.4 56
2019-11-14 16:00:00 10.5 24 Sur 43 Sudoeste 0 932.5 -1.9 58
2019-11-14 15:00:00 9.6 23 Sur 43 Oeste 0 932.9 -0.2 66
2019-11-14 14:00:00 7 25 Sudoeste 50 Oeste 0 933.7 -0.3 78
2019-11-14 13:00:00 6.7 23 Sudoeste 69 Sur 0 934.4 -0.8 79
2019-11-14 12:00:00 13 22 Sur 49 Sur 0 933.1 -2.2 57
2019-11-14 11:00:00 12.7 19 Sur 38 Sur 0 934 -0.8 59
2019-11-14 10:00:00 11.3 14 Sur 42 Sur 0 935.2 -0.2 60
2019-11-14 09:00:00 11.1 16 Sur 42 Sur 0 935.3 -0.4 59
2019-11-14 08:00:00 11.4 26 Sur 44 Sur 0 934.8 -1.8 60
2019-11-14 07:00:00 9 5 Sudeste 25 Este 0 935.4 -2.3 70
2019-11-14 06:00:00 11.4 14 Sudeste 29 Sudeste 0 935.7 -3.5 67
2019-11-14 05:00:00 9.1 9 Sudeste 17 Sudeste 0 936.6 -3.6 87
2019-11-14 04:00:00 8.8 0 Calma 4 Sudeste 0 937.7 -3.2 90
2019-11-14 03:00:00 8.8 0 Calma 6 Nordeste 0 939.2 -2.4 90
2019-11-14 02:00:00 9.7 5 Sudoeste 8 Sudoeste 0 940.2 -2.3 89
2019-11-14 01:00:00 9.7 0 Calma -- -- 0 940.9 -1.8 88
2019-11-14 00:00:00 10.1 0 Calma 8 Nordeste 0 941.6 -1.2 87
2019-11-13 23:00:00 10.1 6 Sur 9 Sur 0 942.5 -0.3 85
2019-11-13 22:00:00 11.2 2 Sur 6 Este 0 942.7 0.4 80
2019-11-13 21:00:00 12.7 0 Calma 6 Sur 0 942.8 1 75
2019-11-13 20:00:00 13 4 Sur 18 Sudoeste 0 942.8 1.5 71
2019-11-13 19:00:00 14.2 10 Sudoeste 27 Sudoeste 0 942.3 2 67
2019-11-13 18:00:00 15.4 11 Sudoeste 39 Sudoeste 0 941.8 2.5 63
2019-11-13 17:00:00 16.7 21 Sudoeste 46 Sudoeste 0 941.3 1.9 59
2019-11-13 16:00:00 16.1 26 Sudoeste 67 Oeste 0 940.3 0.5 60
2019-11-13 15:00:00 17.5 37 Sudoeste 74 Sur 0 939.3 -0.4 53
2019-11-13 14:00:00 17.9 32 Sur 60 Sur 0 939.4 0.7 54
2019-11-13 13:00:00 16.8 40 Sudeste 65 Sur 0 939.8 1.2 59
2019-11-13 12:00:00 17 33 Sur 70 Sudeste 0 939.7 2.1 59
2019-11-13 11:00:00 16 39 Sudeste 66 Sur 0 938.7 2.2 62
2019-11-13 10:00:00 15 39 Sudeste 64 Sudeste 0 938.6 1.9 66
2019-11-13 09:00:00 13.2 30 Sudoeste 49 Oeste 0 937.6 0 75
2019-11-13 08:00:00 10.7 21 Sudoeste 39 Sudoeste 0 936.5 -1.6 82
2019-11-13 07:00:00 10.3 20 Sur 38 Sur 0 936.7 -2 83
2019-11-13 06:00:00 10 3 Sur 17 Sudoeste 0 937.6 -1.4 84
2019-11-13 05:00:00 9.5 5 Sudoeste 31 Sur 0.3 938.1 -2.1 82
2019-11-13 04:00:00 9.6 16 Sur 27 Sur 0 938.7 -2.1 83
2019-11-13 03:00:00 8.5 16 Sur 31 Sur 0.8 939 -2.2 84
2019-11-13 02:00:00 9.7 5 Sudeste 17 Sur 0 940.2 -1.7 68
2019-11-13 01:00:00 9.5 10 Sur 21 Sur 0 940.8 -1.7 69
2019-11-13 00:00:00 8.7 9 Sur 14 Sur 0 941.2 -1.3 72
2019-11-12 23:00:00 8.1 3 Sur 14 Sur 0 941.9 -1 68
2019-11-12 22:00:00 8.6 4 Sudoeste 17 Sudoeste 0 942.5 -0.1 61
2019-11-12 21:00:00 8.9 9 Sudoeste 21 Sudoeste 0 942.5 0.1 58
2019-11-12 20:00:00 9.7 10 Sudoeste 19 Sudoeste 0 942.9 0.4 55
2019-11-12 19:00:00 10.3 8 Sudoeste 39 Sudoeste 0 942.6 0.2 51
2019-11-12 18:00:00 11.3 23 Sudoeste 44 Sudoeste 0 942.4 -0.4 48
2019-11-12 17:00:00 13.1 20 Sudoeste 43 Oeste 0 942.5 -0.5 43
2019-11-12 16:00:00 13.5 19 Sudoeste 40 Sudoeste 0 942.4 -0.9 43
2019-11-12 15:00:00 13.5 19 Sudoeste 46 Sudoeste 0 942.8 -1.2 45
2019-11-12 14:00:00 12.9 21 Oeste 44 Sudoeste 0 943 -1.6 47
2019-11-12 13:00:00 12.7 19 Sudoeste 39 Sudoeste 0 943.3 -1.3 47
2019-11-12 12:00:00 11.6 22 Sudoeste 37 Sudoeste 0 944 0.1 50
2019-11-12 11:00:00 10.5 22 Sudoeste 45 Sudoeste 0 944.6 0.4 54
2019-11-12 10:00:00 9.1 24 Oeste 40 Oeste 0 944.6 0.6 60
2019-11-12 09:00:00 6.8 25 Oeste 39 Oeste 0 943.9 0.1 70
2019-11-12 08:00:00 6.2 21 Oeste 37 Oeste 0 944.2 0.5 72
2019-11-12 07:00:00 6.2 19 Oeste 40 Sudoeste 0 944 0.4 72
2019-11-12 06:00:00 6.1 20 Oeste 44 Oeste 0 943.8 -0.8 72
2019-11-12 05:00:00 6.4 23 Oeste 41 Oeste 0 943.7 -0.4 72
2019-11-12 04:00:00 6.5 14 Oeste 34 Oeste 0 943.6 -0.8 74
2019-11-12 03:00:00 6.9 17 Oeste 53 Sudoeste 0 944.6 -0.1 73
2019-11-12 02:00:00 7.7 26 Oeste 45 Oeste 0 944.1 -0.8 74
2019-11-12 01:00:00 8.1 23 Oeste 44 Oeste 0 944.4 -0.5 77
2019-11-12 00:00:00 8.7 20 Oeste 38 Oeste 0 944.7 0.3 79
2019-11-11 23:00:00 9.2 17 Oeste 27 Oeste 0 944.9 0.7 79
2019-11-11 22:00:00 9.3 11 Oeste 42 Sudoeste 0 944.9 0.9 77
2019-11-11 21:00:00 10.3 22 Sudoeste 49 Sudoeste 0 944.4 0.8 75
2019-11-11 20:00:00 10.6 30 Sudoeste 52 Sudoeste 0 944.2 1.1 74
2019-11-11 19:00:00 11 22 Sudoeste 46 Sudoeste 0 944 1 68
2019-11-11 18:00:00 11.6 21 Sudoeste 42 Sudoeste 0 943.6 0.9 64
2019-11-11 17:00:00 12.2 23 Sudoeste 46 Sudoeste 0 943.1 0 60
2019-11-11 16:00:00 12.7 28 Sudoeste 57 Sudoeste 0 943 -0.8 55
2019-11-11 15:00:00 11.9 35 Sudoeste 104 Sudoeste 0 942.7 -2 57
2019-11-11 14:00:00 11.6 31 Sudoeste 59 Sudoeste 0 943.1 -2.1 57
2019-11-11 13:00:00 10.8 31 Sudoeste 53 Sudoeste 0 943.8 -1.9 57
2019-11-11 12:00:00 10.3 30 Sudoeste 52 Sudoeste 0 944.7 -1.1 60
2019-11-11 11:00:00 9 21 Sudoeste 46 Sudoeste 0 945.2 -0.2 66
2019-11-11 10:00:00 8.1 15 Sudoeste 36 Sudoeste 0 945.7 0.3 70
2019-11-11 09:00:00 7.2 15 Sudoeste 34 Sudoeste 0 945.8 -0.1 70
2019-11-11 08:00:00 6.8 19 Sudoeste 41 Sudoeste 0 945.4 -0.2 70
2019-11-11 07:00:00 6.1 18 Sudoeste 49 Sudoeste 0 945.4 -0.5 72
2019-11-11 06:00:00 6 28 Sudoeste 49 Sudoeste 0 945.9 -0.3 73
2019-11-11 05:00:00 5.6 22 Sudoeste 45 Oeste 0 945.6 -0.6 73
2019-11-11 04:00:00 5.5 20 Sudoeste 48 Sudoeste 0 945.9 -0.4 72
2019-11-11 03:00:00 5.9 21 Sudoeste 40 Sudoeste 0 946.2 0.4 71
2019-11-11 02:00:00 5.9 24 Sudoeste 43 Sudoeste 0 946.2 1.4 70
2019-11-11 01:00:00 6.3 22 Sudoeste 47 Sudoeste 0 946.3 1.3 68
2019-11-11 00:00:00 6.5 24 Sudoeste 55 Sur 0 945.8 1 68
2019-11-10 23:00:00 6.9 26 Sudoeste 58 Sudoeste 0 944.8 -0.7 70
2019-11-10 22:00:00 7.4 29 Sudoeste 62 Sur 0 945 -0.1 69
2019-11-10 21:00:00 7.9 34 Sudoeste 54 Sudoeste 0 944.8 0 63
2019-11-10 20:00:00 8.7 26 Sudoeste 49 Sudoeste 0 945.5 1.5 59
2019-11-10 19:00:00 9.3 26 Sudoeste 48 Sudoeste 0 945.1 1.8 53
2019-11-10 18:00:00 9.8 20 Sudoeste 47 Sur 0 944.8 1.4 52
2019-11-10 17:00:00 9.9 28 Sudoeste 60 Sudoeste 0 944 0.6 49
2019-11-10 16:00:00 10.5 32 Sur 65 Sur 0 943.3 -0.5 47
2019-11-10 15:00:00 11 34 Sudoeste 62 Sudoeste 0 943.4 -1.8 47
2019-11-10 14:00:00 11.2 30 Sudoeste 69 Sudoeste 0 943.4 -2.2 44
2019-11-10 13:00:00 11 30 Sur 55 Sur 0 943.8 -2 46
2019-11-10 12:00:00 10.4 27 Sudoeste 48 Sudoeste 0 945.2 -0.8 50
2019-11-10 11:00:00 9.4 27 Sudoeste 53 Sudoeste 0 945.6 0.5 55
2019-11-10 10:00:00 8.6 27 Sudoeste 56 Sudoeste 0 945.8 1.6 63
2019-11-10 09:00:00 8.1 22 Sudoeste 47 Oeste 0 946 1.7 68
2019-11-10 08:00:00 7.9 23 Sudoeste 48 Sudoeste 0 945.1 1.1 71
2019-11-10 07:00:00 8.4 28 Sudoeste 54 Sur 0 944.2 0.4 72
2019-11-10 06:00:00 9.4 24 Sudoeste 55 Oeste 0 944.3 0.8 70
2019-11-10 05:00:00 10.2 28 Sudoeste 46 Oeste 0 944 -0.1 71
2019-11-10 04:00:00 10.6 27 Sudoeste 47 Sudoeste 0 943.8 -0.7 76
2019-11-10 03:00:00 10.6 24 Sudoeste 48 Sudoeste 0.1 943.5 -1.4 78
2019-11-10 02:00:00 9.8 16 Sudoeste 28 Sudoeste 0 944.1 -1.7 89
2019-11-10 01:00:00 8.6 9 Sur 21 Sur 0 944.5 -2 91
2019-11-10 00:00:00 8.2 13 Sur 26 Sur 0 944.9 -1.9 91
2019-11-09 23:00:00 8.2 7 Sur 16 Sudoeste 0 945.8 -2 92
2019-11-09 22:00:00 8.4 9 Sur 21 Sur 0 946.5 -1 90
2019-11-09 21:00:00 8.7 6 Sur 26 Sudoeste 1.4 946.8 -0.1 88
2019-11-09 20:00:00 9.8 15 Sudoeste 34 Sudoeste 0.5 947.8 0.9 68
2019-11-09 19:00:00 12.5 17 Sudoeste 30 Oeste 0 947.5 0.4 44
2019-11-09 18:00:00 13.2 12 Sudoeste 30 Sudoeste 0 946.9 -0.6 41
2019-11-09 17:00:00 15.6 15 Sudoeste 30 Sudoeste 0 946.9 -1.5 38
2019-11-09 16:00:00 14.4 12 Sudoeste 21 Sudoeste 0 947.1 -2.5 38
2019-11-09 15:00:00 14.8 12 Oeste 30 Sudoeste 0 947.5 -2.9 35
2019-11-09 14:00:00 15.1 15 Sudoeste 32 Sudoeste 0 948.4 -2.5 42
2019-11-09 13:00:00 13 18 Sudoeste 31 Sudoeste 0 949.6 -1.7 47
2019-11-09 12:00:00 12.8 18 Sudoeste 31 Sudoeste 0 950.4 -0.9 49
2019-11-09 11:00:00 11.2 15 Oeste 28 Oeste 0 950.9 0 52
2019-11-09 10:00:00 9.3 11 Oeste 22 Oeste 0 951.3 0.9 60
2019-11-09 09:00:00 6.8 13 Sudoeste 21 Sudoeste 0 951.3 1.1 66
2019-11-09 08:00:00 5.8 13 Sudoeste 23 Oeste 0 950.9 1.1 67
2019-11-09 07:00:00 5.7 12 Sudoeste 22 Sudoeste 0 950.4 0.6 66
2019-11-09 06:00:00 5.8 10 Sudoeste 19 Sudoeste 0 950.2 0.1 65
2019-11-09 05:00:00 6 9 Sudoeste 19 Sudoeste 0 949.8 -0.1 63
2019-11-09 04:00:00 7 14 Sudoeste 32 Sudoeste 0 949.8 0.1 61
2019-11-09 03:00:00 7.6 16 Sudoeste 44 Sudoeste 0 950.1 0.8 58
2019-11-09 02:00:00 8.4 21 Sudoeste 40 Sudoeste 0 949.9 0.7 55
2019-11-09 01:00:00 8.7 21 Sudoeste 41 Sudoeste 0 949.7 0.8 55
2019-11-09 00:00:00 8.8 14 Sudoeste 31 Sudoeste 0 949.3 0.9 55
2019-11-08 23:00:00 9 20 Sudoeste 40 Sudoeste 0 949.2 1.2 54
2019-11-08 22:00:00 9.4 22 Sudoeste 43 Sudoeste 0 948.9 1.6 54
2019-11-08 21:00:00 9.4 19 Sudoeste 37 Sudoeste 0 948.4 1.8 52
2019-11-08 20:00:00 10 19 Sudoeste 37 Sudoeste 0 948 2.4 49
2019-11-08 19:00:00 10.1 15 Sudoeste 33 Sudoeste 0 947.3 2.2 47
2019-11-08 18:00:00 10.9 18 Sudoeste 42 Sudoeste 0 946.6 2 45
2019-11-08 17:00:00 12.3 23 Sur 44 Sudoeste 0 945.6 0.7 43
2019-11-08 16:00:00 12.8 25 Sudoeste 50 Sudoeste 0 945.1 0.4 44
2019-11-08 15:00:00 12.7 25 Sudoeste 45 Sudoeste 0 944.6 -0.4 45
2019-11-08 14:00:00 12.5 23 Sudoeste 45 Sudoeste 0 944.9 -0.3 46
2019-11-08 13:00:00 11.2 27 Sudoeste 47 Sudoeste 0 944.7 -0.8 49
2019-11-08 12:00:00 10.5 22 Sudoeste 46 Sudoeste 0 945 0.6 52
2019-11-08 11:00:00 9.2 24 Sudoeste 44 Sudoeste 0 945.2 1.7 59
2019-11-08 10:00:00 8.7 21 Sudoeste 39 Sudoeste 0 945.5 2.2 61
2019-11-08 09:00:00 7.4 14 Sudoeste 28 Sur 0 944.4 1.8 66
2019-11-08 08:00:00 6.1 15 Sudoeste 30 Sudoeste 0 943.5 1.5 68
2019-11-08 07:00:00 6.7 14 Sudoeste 32 Sudoeste 0 943.3 1.8 68
2019-11-08 06:00:00 6.9 16 Sudoeste 33 Sudoeste 0 942.6 1.4 66
2019-11-08 05:00:00 7.1 19 Sudoeste 39 Sudoeste 0 942 0.5 67
2019-11-08 04:00:00 7.8 17 Sudoeste 37 Sudoeste 0 941.5 0.1 67
2019-11-08 03:00:00 7.3 16 Sudoeste 33 Sudoeste 0 941.2 -0.2 73
2019-11-08 02:00:00 7.6 12 Sudoeste 42 Sudoeste 0 941.5 -0.3 70
2019-11-08 01:00:00 8.9 23 Sudoeste 46 Sudoeste 0 941.4 -0.3 61
2019-11-08 00:00:00 10 22 Sur 48 Sudoeste 0 941.4 -0.3 56
2019-11-07 23:00:00 9.7 13 Sudoeste 37 Sudoeste 0 941.8 0.5 56
2019-11-07 22:00:00 10.4 19 Sudoeste 48 Oeste 0 941.7 0.7 55
2019-11-07 21:00:00 11.6 21 Sudoeste 42 Sudoeste 0 941.7 1.1 56
2019-11-07 20:00:00 11.2 5 Oeste 15 Oeste 0 941.3 1.1 63
2019-11-07 19:00:00 12.4 3 Sudoeste 22 Sudoeste 0 941 1.2 60
2019-11-07 18:00:00 14.3 12 Sudoeste 42 Sudoeste 0 940.6 0.4 54
2019-11-07 17:00:00 15.6 16 Sudoeste 36 Sudoeste 0 940.2 -0.5 55
2019-11-07 16:00:00 16.4 15 Sudoeste 31 Sudoeste 0 939.8 -1.3 53
2019-11-07 15:00:00 17.5 16 Sudoeste 34 Sudoeste 0 940.2 -1.5 56
2019-11-07 14:00:00 16.4 14 Sudoeste 32 Sudoeste 0 940.7 -1.2 59
2019-11-07 13:00:00 16.9 21 Sudoeste 39 Sudoeste 0 941.1 -1 56
2019-11-07 12:00:00 17.1 20 Sudoeste 37 Sur 0 941.7 -0.4 59
2019-11-07 11:00:00 15.8 21 Sur 36 Sudoeste 0 941.9 -0.1 61
2019-11-07 10:00:00 14.3 9 Sur 21 Sur 0 942.1 -0.1 69
2019-11-07 09:00:00 11.6 13 Sur 27 Sudeste 0 942.1 -0.3 79
2019-11-07 08:00:00 9 12 Sudoeste 19 Sudoeste 0 942 -0.7 83
2019-11-07 07:00:00 8.8 9 Sur 18 Sur 0 942.2 -0.7 82
2019-11-07 06:00:00 7.3 0 Calma 7 Noroeste 0 942.4 -1.1 79
2019-11-07 05:00:00 7.6 0 Calma 15 Sudoeste 0 942.7 -1.3 76
2019-11-07 04:00:00 8.4 7 Sudoeste 12 Sudoeste 0 942.9 -1.7 75
2019-11-07 03:00:00 8.7 7 Sudoeste 18 Sudoeste 0 943.5 -1.7 75
2019-11-07 02:00:00 8.2 6 Sudoeste 15 Sur 0 944 -1.5 76
2019-11-07 01:00:00 8.4 2 Sudoeste 15 Sur 0 944.6 -1 76
2019-11-07 00:00:00 8.3 2 Sudoeste 12 Sudoeste 0 945.2 -0.1 73
2019-11-06 23:00:00 8.9 7 Sudoeste 15 Sudoeste 0 945.5 -0.2 71
2019-11-06 22:00:00 9 7 Sudoeste 20 Sudoeste 0 945.6 0.5 68
2019-11-06 21:00:00 8.9 9 Sudoeste 15 Sudoeste 0 945.3 0.6 66
2019-11-06 20:00:00 9.3 9 Sudoeste 14 Sur 0 945.7 1.4 63
2019-11-06 19:00:00 10.4 10 Sur 18 Sudoeste 0 945.1 0.3 58
2019-11-06 18:00:00 12.5 11 Sudoeste 32 Sur 0 944.7 0.4 51
2019-11-06 17:00:00 14.3 14 Sudoeste 39 Sudoeste 0 944.3 -0.3 46
2019-11-06 16:00:00 15.4 21 Sudoeste 36 Sur 0 944.8 -0.3 45
2019-11-06 15:00:00 15.8 21 Sudoeste 41 Sudoeste 0 944.3 -1.7 44
2019-11-06 14:00:00 15.5 18 Sudoeste 39 Sudoeste 0 944.6 -1.2 46
2019-11-06 13:00:00 14.8 16 Sudoeste 39 Sudoeste 0 945.1 -0.6 53
2019-11-06 12:00:00 13.5 21 Sudoeste 42 Sudoeste 0 946 0.5 55
2019-11-06 11:00:00 12.4 23 Sudoeste 41 Sudoeste 0 945.8 0.9 58
2019-11-06 10:00:00 11.4 25 Sudoeste 48 Sudoeste 0 945.7 0.9 62
2019-11-06 09:00:00 10.4 23 Sudoeste 48 Sudoeste 0 945.5 0.7 66
2019-11-06 08:00:00 9.8 28 Sudoeste 44 Sudoeste 0 944.9 0 68
2019-11-06 07:00:00 9.4 17 Sudoeste 49 Sudoeste 0 944.8 0 67
2019-11-06 06:00:00 10.3 25 Sudoeste 46 Sudoeste 0 944.8 0.1 64
2019-11-06 05:00:00 10.5 24 Sudoeste 40 Sudoeste 0 944.9 0 64
2019-11-06 04:00:00 10.2 20 Sudoeste 41 Sudoeste 0 944.8 0 68
2019-11-06 03:00:00 10.1 18 Sudoeste 36 Sudoeste 0 944.7 -0.1 68
2019-11-06 02:00:00 10.5 14 Sudoeste 28 Sudoeste 0 944.9 0.1 66
2019-11-06 01:00:00 11.1 15 Sudoeste 29 Sudoeste 0 944.8 0.1 64
2019-11-06 00:00:00 11.6 13 Sudoeste 30 Sudoeste 0 944.8 0.9 63
2019-11-05 23:00:00 11.6 14 Sudoeste 28 Sudoeste 0 944.8 1.5 64
2019-11-05 22:00:00 12.3 18 Sudoeste 40 Sudoeste 0 944.7 1.8 61
2019-11-05 21:00:00 11.9 16 Sur 29 Sudoeste 0 943.9 1.6 61
2019-11-05 20:00:00 11.9 13 Sur 36 Sur 0 943.3 1.4 60
2019-11-05 19:00:00 12.1 17 Sur 30 Sur 0 942.9 1.1 58
2019-11-05 18:00:00 12.5 14 Sur 37 Sur 0 942.3 0.6 57
2019-11-05 17:00:00 13.7 22 Sur 48 Sur 0 941.9 0.6 53
2019-11-05 16:00:00 14.6 26 Sur 50 Sur 0 941.8 -0.3 49
2019-11-05 15:00:00 15.6 28 Sur 48 Sur 0 941.7 -1 46
2019-11-05 14:00:00 15.6 24 Sur 49 Sudoeste 0 941.3 -1.5 48
2019-11-05 13:00:00 14.8 26 Sur 61 Sudeste 0 942.1 -0.8 52
2019-11-05 12:00:00 13.8 33 Sur 53 Sur 0 942.7 0.7 54
2019-11-05 11:00:00 12.9 23 Sudoeste 40 Sudoeste 0 942.8 1.5 59
2019-11-05 10:00:00 11.8 22 Sur 46 Sur 0 942.9 2.3 61
2019-11-05 09:00:00 11.6 26 Sudoeste 44 Sur 0 942 1.9 63
2019-11-05 08:00:00 11.2 19 Sudoeste 42 Sudoeste 0 941.3 1.9 66
2019-11-05 07:00:00 11.7 21 Sudoeste 42 Sudoeste 0 940.6 1 64
2019-11-05 06:00:00 11.8 17 Sur 38 Sudoeste 0 940.1 0.8 69
2019-11-05 05:00:00 12.1 21 Sudoeste 45 Sudoeste 0 939.4 -0.1 73
2019-11-05 04:00:00 12.1 22 Sudoeste 44 Sudoeste 0 939.6 0.7 78
2019-11-05 03:00:00 12.8 15 Oeste 39 Sudoeste 0 939.3 0.1 81
2019-11-05 02:00:00 13.9 16 Oeste 33 Sudoeste 0.1 939.5 -0.4 74
2019-11-05 01:00:00 15.5 21 Sudoeste 41 Sur 0 938.9 -1.7 61
2019-11-05 00:00:00 15.4 21 Sudoeste 38 Sudoeste 0 939.2 -1.5 61
2019-11-04 23:00:00 14.9 17 Sudoeste 32 Sudoeste 0 939.9 -1 63
2019-11-04 22:00:00 14.2 13 Sudoeste 25 Sudoeste 0 940.6 -0.3 63
2019-11-04 21:00:00 14.9 13 Sur 24 Sudoeste 0 940.7 -0.1 60
2019-11-04 20:00:00 15.5 15 Sur 28 Sur 0 940.9 -0.1 58
2019-11-04 19:00:00 16.3 13 Sur 29 Sur 0 940.9 0 57
2019-11-04 18:00:00 16.7 10 Sur 37 Sur 0 940.8 -0.5 56
2019-11-04 17:00:00 17.8 21 Sur 41 Sur 0 941 -1 52
2019-11-04 16:00:00 18.5 21 Sur 39 Sur 0 940.9 -1.5 51
2019-11-04 15:00:00 18.9 19 Sur 44 Sudoeste 0 941.3 -2.1 50
2019-11-04 14:00:00 19.7 21 Sur 41 Sur 0 942 -1.8 49
2019-11-04 13:00:00 19.3 24 Sudoeste 47 Sudoeste 0 942.4 -1.2 51
2019-11-04 12:00:00 19.2 19 Sur 41 Sur 0 943.4 -0.2 54
2019-11-04 11:00:00 17 17 Sudoeste 38 Sur 0 943.8 0.6 63
2019-11-04 10:00:00 16.8 13 Sur 33 Sur 0 943.6 0.6 67
2019-11-04 09:00:00 16.3 15 Sur 30 Sur 0 943.6 0.6 73
2019-11-04 08:00:00 13.7 8 Sur 17 Sudoeste 0 943.2 -0.1 84
2019-11-04 07:00:00 13 6 Sudoeste 18 Sur 0 943 -0.8 81
2019-11-04 06:00:00 14.4 10 Sur 25 Sur 0 943 -1.1 77
2019-11-04 05:00:00 14 12 Sur 24 Sur 0 943.3 -0.8 76
2019-11-04 04:00:00 14 15 Sur 32 Sudoeste 0 943.8 -0.4 73
2019-11-04 03:00:00 13.3 5 Sur 13 Sur 0 944.1 0 68
2019-11-04 02:00:00 13.6 5 Sur 29 Sudoeste 0 944.1 0.3 63
2019-11-04 01:00:00 14.6 16 Sur 32 Sur 0 944.2 0.6 60
2019-11-04 00:00:00 14 9 Sur 24 Sur 0 944.1 1.5 59
2019-11-03 23:00:00 14.9 18 Sur 35 Sur 0 943.8 1.8 58
2019-11-03 22:00:00 14.6 14 Sudoeste 30 Sudoeste 0 943.6 2.6 59
2019-11-03 21:00:00 15.1 14 Sudoeste 34 Sur 0 942.6 2.7 59
2019-11-03 20:00:00 15.9 15 Sudoeste 39 Sur 0 942 3.1 58
2019-11-03 19:00:00 16.3 22 Sur 48 Sur 0 941 3.1 57
2019-11-03 18:00:00 17.2 33 Sur 62 Sudeste 0 939.9 2.4 54
2019-11-03 17:00:00 18.5 35 Sudeste 64 Sur 0 938.9 1.6 51
2019-11-03 16:00:00 19.1 40 Sudeste 71 Sudeste 0 937.9 0.8 50
2019-11-03 15:00:00 19.3 41 Sudeste 74 Sudeste 0 937.5 0.5 51
2019-11-03 14:00:00 19.3 36 Noroeste 77 Noroeste 0 937.3 0.4 51
2019-11-03 13:00:00 19.5 37 Norte 75 Este 0 937.1 0.8 50
2019-11-03 12:00:00 19.9 37 Sudeste 68 Sudeste 0 937 1.1 52
2019-11-03 11:00:00 19.2 33 Sudeste 67 Sudeste 0 936.9 1.4 53
2019-11-03 10:00:00 18.2 33 Sur 59 Sur 0 936.3 0.8 57
2019-11-03 09:00:00 16 10 Sur 27 Sudoeste 0 935.9 0 68
2019-11-03 08:00:00 14 8 Sur 24 Sudoeste 0 935.5 -0.8 67
2019-11-03 07:00:00 14.5 16 Sudoeste 33 Sudoeste 0 935.5 -1.1 62
2019-11-03 06:00:00 14.9 18 Sudoeste 32 Sudoeste 0 935.9 -1.1 60
2019-11-03 05:00:00 15.3 14 Sudoeste 30 Sudoeste 0 936.3 -0.7 59
2019-11-03 04:00:00 16 21 Sudoeste 41 Sudoeste 0 936.6 -1.4 58
2019-11-03 03:00:00 16.4 17 Sudoeste 30 Sudoeste 0 937 -1.5 68
2019-11-03 02:00:00 16.6 15 Sudoeste 33 Sudoeste 0 937 -1.5 68
2019-11-03 01:00:00 16.6 13 Sudoeste 29 Sudoeste 0 938 -1.1 70
2019-11-03 00:00:00 16.9 16 Sur 37 Sur 0 938.5 -0.9 69
2019-11-02 23:00:00 16.7 12 Sudoeste 22 Sudoeste 0 938.5 -1.6 70
2019-11-02 22:00:00 16.1 7 Sur 15 Sudoeste 0 939.1 -0.9 70
2019-11-02 21:00:00 15.6 9 Sudoeste 15 Sudoeste 0 939.4 -0.9 70
2019-11-02 20:00:00 16.4 6 Sur 25 Sudoeste 0 940.1 -0.4 66
2019-11-02 19:00:00 17.6 21 Sudoeste 35 Sudoeste 0 940 -0.5 61
2019-11-02 18:00:00 17.9 17 Sudoeste 35 Sudoeste 0 940.3 -0.8 57
2019-11-02 17:00:00 19.7 17 Sudoeste 49 Sudoeste 0 940.5 -0.9 51
2019-11-02 16:00:00 21.3 22 Sudoeste 39 Sudoeste 0 940.5 -2 47
2019-11-02 15:00:00 21.9 19 Sur 43 Sur 0 941.1 -2.1 49
2019-11-02 14:00:00 21.1 20 Sudoeste 42 Sudoeste 0 941.4 -2.9 49
2019-11-02 13:00:00 21.1 24 Sur 44 Sur 0 942.5 -2 50
2019-11-02 12:00:00 20 22 Sudoeste 42 Sudoeste 0 943.2 -1 56
2019-11-02 11:00:00 19.4 26 Sudoeste 45 Sudoeste 0 944.3 0.4 60
2019-11-02 10:00:00 19.2 12 Sudoeste 27 Sur 0 944.5 0.4 61
2019-11-02 09:00:00 16.5 9 Sur 21 Sudoeste 0 944.2 -0.2 70
2019-11-02 08:00:00 16.6 5 Nordeste 10 Norte 0 943.9 -0.9 68
2019-11-02 07:00:00 16.6 3 Sur 25 Sudoeste 0 944.1 -1 66
2019-11-02 06:00:00 17.4 17 Sur 42 Sudoeste 0 944.4 -1.2 65
2019-11-02 05:00:00 17.7 19 Sudoeste 44 Sudoeste 0 944.8 -1.3 64
2019-11-02 04:00:00 17.8 20 Sur 36 Sur 0 945.1 -1.6 63
2019-11-02 03:00:00 18.3 23 Sudoeste 42 Sudoeste 0 945.6 -1.2 61
2019-11-02 02:00:00 18.1 15 Sudoeste 37 Sudoeste 0 946.1 -1.7 62
2019-11-02 01:00:00 18.4 20 Sur 48 Sudoeste 0 946.7 -1.3 62
2019-11-02 00:00:00 18.9 24 Sudoeste 41 Sudoeste 0 946.8 -1.4 62
2019-11-01 23:00:00 19.3 24 Sudoeste 45 Sudoeste 0 947.8 -0.5 61
2019-11-01 22:00:00 19.4 17 Sudoeste 38 Sudoeste 0 948 -0.5 62
2019-11-01 21:00:00 19.3 9 Sudoeste 33 Sudoeste 0 948.2 -0.3 64
2019-11-01 20:00:00 19.1 9 Sudoeste 31 Sudoeste 0 948.3 -0.3 65
2019-11-01 19:00:00 19.6 18 Sudoeste 36 Sudoeste 0 948.5 -0.2 62
2019-11-01 18:00:00 20.5 24 Sudoeste 36 Sudoeste 0 948.5 -0.4 57
2019-11-01 17:00:00 21.3 18 Sudoeste 42 Sur 0 948.6 -0.9 52
2019-11-01 16:00:00 23.1 21 Sudoeste 39 Sudoeste 0 948.7 -1.7 48
2019-11-01 15:00:00 23.8 22 Sudoeste 41 Sudoeste 0 948.9 -2.4 47
2019-11-01 14:00:00 23.3 17 Sudoeste 36 Sudoeste 0 949.5 -2.3 49
2019-11-01 13:00:00 21.8 15 Sudoeste 36 Oeste 0 950.4 -1.5 54
2019-11-01 12:00:00 21.9 18 Sudoeste 31 Sudoeste 0 951.3 -0.4 56
2019-11-01 11:00:00 21.2 13 Sudoeste 29 Sudoeste 0 951.8 0.2 60
2019-11-01 10:00:00 20.3 11 Sudoeste 22 Sudoeste 0 951.9 0.3 67
2019-11-01 09:00:00 18.4 7 Sudoeste 16 Sudoeste 0 951.7 -0.2 81
2019-11-01 08:00:00 16.3 9 Sudoeste 16 Sudoeste 0 951.6 -0.1 89
2019-11-01 07:00:00 16.6 6 Sudoeste 15 Sudoeste 0 951.6 -0.1 84
2019-11-01 06:00:00 17 8 Sudoeste 23 Sudoeste 0 951.9 -0.3 83
2019-11-01 05:00:00 17 10 Sudoeste 23 Sudoeste 0 951.7 -0.9 80
2019-11-01 04:00:00 17.4 17 Sudoeste 36 Sudoeste 0 951.7 -0.9 77
2019-11-01 03:00:00 16.8 14 Sudoeste 26 Sudoeste 0 952.2 -0.9 77
2019-11-01 02:00:00 17.3 13 Sur 27 Sudoeste 0 952.6 -0.8 75
2019-11-01 01:00:00 17.3 15 Sur 24 Sur 0 952.6 -0.8 77
2019-11-01 00:00:00 16.3 10 Sur 19 Sur 0 953.1 0.1 78
2019-10-31 23:00:00 16.9 8 Sudoeste 18 Sudoeste 0 953.4 0.5 70
2019-10-31 22:00:00 18 10 Sudoeste 28 Sur 0 953.4 1 66
2019-10-31 21:00:00 17.9 14 Sudoeste 25 Sudoeste 0 953 0.8 65
2019-10-31 20:00:00 18.3 12 Sudoeste 23 Sudoeste 0 952.9 1 62
2019-10-31 19:00:00 19.5 11 Sudoeste 32 Sudoeste 0 952.4 0.6 56
2019-10-31 18:00:00 20.2 12 Sudoeste 36 Sudoeste 0 952.2 0.5 53
2019-10-31 17:00:00 21.6 16 Sudoeste 34 Sur 0 951.9 -0.3 49
2019-10-31 16:00:00 22.3 22 Sudoeste 40 Sur 0 951.8 -0.9 48
2019-10-31 15:00:00 22.3 19 Sudoeste 51 Sur 0 951.7 -1.8 50
2019-10-31 14:00:00 22 22 Sudoeste 46 Sudoeste 0 952.2 -1.5 52
2019-10-31 13:00:00 21.1 17 Sudoeste 32 Sur 0 952.7 -1.1 59
2019-10-31 12:00:00 20.3 15 Sudoeste 35 Oeste 0 953.5 0.2 60
2019-10-31 11:00:00 19.3 10 Sudoeste 18 Oeste 0 953.7 1.1 67
2019-10-31 10:00:00 18.6 10 Sudoeste 19 Sur 0 953.8 1.3 72
2019-10-31 09:00:00 17.4 9 Sudoeste 20 Sudoeste 0 953.3 1.1 79
2019-10-31 08:00:00 16.4 9 Sudoeste 21 Sudoeste 0 952.6 0.5 79
2019-10-31 07:00:00 16.5 12 Sur 24 Sur 0 952.5 0.4 76
2019-10-31 06:00:00 16.7 12 Sudoeste 25 Sudoeste 0 952.2 -0.4 73
2019-10-31 05:00:00 17 13 Sudoeste 29 Sur 0 952.1 -0.7 68
2019-10-31 04:00:00 16.5 9 Sur 19 Sudoeste 0 952.1 -1 68
2019-10-31 03:00:00 16.4 9 Sudoeste 19 Sudoeste 0 952.6 -0.6 67
2019-10-31 02:00:00 16.1 11 Oeste 27 Sudoeste 0 952.8 -0.5 66
2019-10-31 01:00:00 17.7 14 Sudoeste 25 Sudoeste 0 953.1 -0.1 59
2019-10-31 00:00:00 16.8 6 Sur 15 Sur 0 953.2 0.3 60
2019-10-30 23:00:00 16.7 3 Sur 10 Oeste 0 953.3 0.5 59
2019-10-30 22:00:00 17.7 8 Oeste 15 Sudoeste 0 953.2 1.1 55
2019-10-30 21:00:00 17.7 12 Oeste 18 Oeste 0 952.9 1.2 55
2019-10-30 20:00:00 18.6 12 Sudoeste 20 Sudoeste 0 952.8 1.4 53
2019-10-30 19:00:00 18.5 5 Oeste 11 Oeste 0 952.1 0.7 50
2019-10-30 18:00:00 20.1 8 Oeste 21 Oeste 0 951.7 0.2 43
2019-10-30 17:00:00 21.8 13 Sudoeste 29 Sudoeste 0 951.4 -0.2 40
2019-10-30 16:00:00 21.8 13 Oeste 28 Sudoeste 0 951.4 -0.7 40
2019-10-30 15:00:00 22.1 16 Sudoeste 33 Oeste 0 951.5 -1.4 42
2019-10-30 14:00:00 21.9 15 Sudoeste 26 Oeste 0 951.6 -1.2 45
2019-10-30 13:00:00 21.3 12 Sudoeste 27 Sudoeste 0 952.1 -0.8 53
2019-10-30 12:00:00 20.3 12 Sudoeste 24 Oeste 0 952.9 0.5 57
2019-10-30 11:00:00 19.3 9 Oeste 23 Sudoeste 0 952.8 1 63
2019-10-30 10:00:00 17.1 12 Sudoeste 22 Sudoeste 0 952.9 1.7 75
2019-10-30 09:00:00 14.8 0 Calma 7 Sur 0 952.4 1.4 92
2019-10-30 08:00:00 12.4 0 Calma -- -- 0 951.8 0.7 92
2019-10-30 07:00:00 12.8 0 Calma 9 Oeste 0 951.2 0.1 91
2019-10-30 06:00:00 13 3 Noroeste 12 Sudoeste 0 951 -0.3 90
2019-10-30 05:00:00 13.4 6 Sudoeste 12 Sudoeste 0 951.1 -0.3 89
2019-10-30 04:00:00 12.9 4 Sudoeste 16 Sudoeste 0 951.1 0.1 88
2019-10-30 03:00:00 13.4 9 Sudoeste 15 Sudoeste 0 951.3 0.5 88
2019-10-30 02:00:00 13.3 3 Oeste 11 Sudoeste 0 951.4 0.3 88
2019-10-30 01:00:00 13.8 0 Calma 19 Sudoeste 0 951 0.1 85
2019-10-30 00:00:00 14.7 12 Sudoeste 22 Sudoeste 0 950.8 0.3 82
2019-10-29 23:00:00 14.9 10 Sudoeste 18 Sudoeste 0 951.1 1.1 81
2019-10-29 22:00:00 15.3 8 Sudoeste 24 Sudoeste 0 950.9 1.6 79
2019-10-29 21:00:00 16 15 Oeste 23 Sudoeste 0 950.5 2 75
2019-10-29 20:00:00 16.4 11 Oeste 19 Oeste 0 950 1.5 70
2019-10-29 19:00:00 17.6 9 Oeste 20 Oeste 0 949.3 1 63
2019-10-29 18:00:00 18.9 13 Oeste 22 Oeste 0 948.5 0.5 55
2019-10-29 17:00:00 20.5 13 Oeste 24 Noroeste 0 948.5 0.3 51
2019-10-29 16:00:00 21.8 10 Oeste 24 Sudoeste 0 948.3 -0.5 48
2019-10-29 15:00:00 22.1 12 Sudoeste 21 Sudoeste 0 948 -1.3 47
2019-10-29 14:00:00 21.4 11 Oeste 23 Oeste 0 948.2 -1.4 49
2019-10-29 13:00:00 20.5 11 Sudoeste 21 Oeste 0 948.8 -0.5 53
2019-10-29 12:00:00 20.1 10 Sudoeste 24 Oeste 0 949.3 0.6 57
2019-10-29 11:00:00 19.2 12 Sudoeste 22 Oeste 0 949.6 1.7 61
2019-10-29 10:00:00 17.9 7 Oeste 18 Oeste 0 949.3 1.9 66
2019-10-29 09:00:00 15.3 7 Oeste 13 Oeste 0 948.7 1.4 78
2019-10-29 08:00:00 12.1 3 Norte 10 Este 0 947.9 0.8 83
2019-10-29 07:00:00 12 0 Calma 9 Nordeste 0 947.4 0.2 77
2019-10-29 06:00:00 12.5 2 Nordeste 7 Nordeste 0 947.3 -0.2 74
2019-10-29 05:00:00 13.7 3 Oeste 13 Sudoeste 0 947.1 -0.7 69
2019-10-29 04:00:00 13.5 10 Oeste 14 Oeste 0 947.2 -0.8 76
2019-10-29 03:00:00 13.1 0 Calma 8 Oeste 0 947.5 -0.7 85
2019-10-29 02:00:00 12.7 0 Calma 10 Oeste 0 947.8 -0.5 86
2019-10-29 01:00:00 12.9 0 Calma 8 Oeste 0 948 -0.1 89
2019-10-29 00:00:00 13.6 4 Oeste 7 Oeste 0 948.2 0 90
2019-10-28 23:00:00 13.6 0 Calma 3 Sur 0 948.3 0.3 90
2019-10-28 22:00:00 13.6 0 Calma 6 Oeste 0 948.1 0.3 87
2019-10-28 21:00:00 14.8 0 Calma 6 Oeste 0 948.2 0.6 81
2019-10-28 20:00:00 15.6 0 Calma 3 Sudeste 0 948 0.3 77
2019-10-28 19:00:00 16.6 0 Calma 6 Este 0 947.8 0.1 68
2019-10-28 18:00:00 19.3 0 Calma 7 Este 0 947.6 -0.4 56
2019-10-28 17:00:00 21.2 5 Este 11 Este 0 947.7 -0.8 51
2019-10-28 16:00:00 21.2 4 Este 11 Este 0 947.7 -1.6 55
2019-10-28 15:00:00 20.2 3 Este 9 Nordeste 0 948 -2 63
2019-10-28 14:00:00 17.6 4 Sudeste 10 Sudeste 0 948.5 -1.8 86
2019-10-28 13:00:00 15.8 0 Calma 8 Norte 0 949.3 -0.7 97
2019-10-28 12:00:00 15 0 Calma 12 Sudeste 0 950 0 98
2019-10-28 11:00:00 14.7 3 Sudeste 8 Sur 0 950.3 0.6 98
2019-10-28 10:00:00 13.8 0 Calma 6 Sudeste 0 950 0.7 98
2019-10-28 09:00:00 13.1 0 Calma -- -- 0 950 0.8 98
2019-10-28 08:00:00 13.1 0 Calma -- -- 0 949.7 0.3 98
2019-10-28 07:00:00 13 0 Calma -- -- 0 949.3 -0.2 99
2019-10-28 06:00:00 13.1 0 Calma 4 Sur 0 949.2 -0.7 98
2019-10-28 05:00:00 13.4 0 Calma -- -- 0 949.4 -1 98
2019-10-28 04:00:00 14 0 Calma -- -- 0 949.5 -1.4 98
2019-10-28 03:00:00 14.1 0 Calma 5 Norte 0 949.9 -1.1 98
2019-10-28 02:00:00 14 0 Calma -- -- 0 950.4 -1 98
2019-10-28 01:00:00 13.7 0 Calma -- -- 0 950.9 -0.6 97
2019-10-28 00:00:00 13.2 0 Calma -- -- 0 951 -0.6 97
2019-10-27 23:00:00 13.3 0 Calma -- -- 0 951.4 0 95
2019-10-27 22:00:00 13.4 0 Calma -- -- 0 951.5 0.7 93
2019-10-27 21:00:00 14.4 0 Calma 8 Este 0 951.6 1.2 91
2019-10-27 20:00:00 14.8 0 Calma 8 Este 0 951.4 1 86
2019-10-27 19:00:00 16.2 4 Este 12 Este 0 950.8 0.4 79
2019-10-27 18:00:00 18 7 Este 14 Este 0 950.4 -0.3 65
2019-10-27 17:00:00 19.9 7 Este 14 Nordeste 0 950.4 -0.8 57
2019-10-27 16:00:00 19.7 3 Norte 10 Este 0 950.4 -1.7 59
2019-10-27 15:00:00 20.1 5 Este 15 Nordeste 0 950.7 -2 59
2019-10-27 14:00:00 17.8 5 Norte 15 Norte 0 951.2 -1.6 66
2019-10-27 13:00:00 17.6 3 Este 13 Este 0 952.1 -0.5 72
2019-10-27 12:00:00 15.1 0 Calma 10 Sudeste 0 952.7 0.3 91
2019-10-27 11:00:00 13.6 0 Calma 9 Este 0 952.8 0.6 97
2019-10-27 10:00:00 13.4 3 Este 8 Sudeste 0 952.6 0.9 97
2019-10-27 09:00:00 13 4 Sudeste 6 Sudeste 0 952.4 0.8 97
2019-10-27 08:00:00 13.1 0 Calma 7 Este 0 952.2 0.8 97
2019-10-27 07:00:00 13.2 0 Calma 4 Sudeste 0 951.7 0.1 97
2019-10-27 06:00:00 13.3 0 Calma 6 Este 0 951.6 -0.1 97
2019-10-27 05:00:00 13.4 2 Sudeste 6 Sudeste 0 951.4 -0.8 97
2019-10-27 04:00:00 13.7 2 Sudeste 6 Este 0 951.6 -0.6 97
2019-10-27 03:00:00 13.8 0 Calma 4 Sudeste 0 951.7 -0.7 97
2019-10-27 02:00:00 13.5 0 Calma 4 Noroeste 0 952.2 -0.1 97
2019-10-27 01:00:00 12.5 0 Calma -- -- 0 952.4 0.3 95
2019-10-27 00:00:00 13.5 0 Calma -- -- 0 952.3 0.6 94
2019-10-26 23:00:00 14 0 Calma 4 Oeste 0 952.4 1.5 92
2019-10-26 22:00:00 14.6 0 Calma 6 Este 0 952.1 1.9 89
2019-10-26 21:00:00 15.3 0 Calma 9 Este 0 951.7 1.8 76
2019-10-26 20:00:00 17.7 6 Este 15 Este 0 950.9 0.7 61
2019-10-26 19:00:00 21.1 5 Este 13 Este 0 950.2 -0.2 43
2019-10-26 18:00:00 23.4 4 Sudeste 12 Este 0 949.9 -0.9 36
2019-10-26 17:00:00 23.6 5 Este 12 Nordeste 0 950.2 -1.3 35
2019-10-26 16:00:00 23.3 3 Nordeste 12 Este 0 950.4 -1.9 38
2019-10-26 15:00:00 22.9 4 Este 10 Este 0 950.8 -1.6 39
2019-10-26 14:00:00 21.3 4 Nordeste 9 Nordeste 0 951.5 -0.9 46
2019-10-26 13:00:00 19.9 0 Calma 9 Norte 0 952.3 0.3 59
2019-10-26 12:00:00 18.2 2 Este 8 Nordeste 0 952.4 0.7 63
2019-10-26 11:00:00 15.2 3 Noroeste 7 Noroeste 0 952.4 1.1 74
2019-10-26 10:00:00 12.8 3 Sudeste 10 Oeste 0 952 0.8 84
2019-10-26 09:00:00 11.2 7 Oeste 14 Oeste 0 951.7 0.4 89
2019-10-26 08:00:00 10.2 6 Oeste 17 Oeste 0 951.3 0.1 89
2019-10-26 07:00:00 11.2 11 Oeste 17 Oeste 0 951.2 -0.5 89
2019-10-26 06:00:00 10.3 0 Calma 7 Oeste 0 951.3 -0.6 89
2019-10-26 05:00:00 10.8 2 Oeste 15 Oeste 0 951.2 -1.1 86
2019-10-26 04:00:00 12.1 6 Oeste 14 Oeste 0 951.7 -0.9 85
2019-10-26 03:00:00 12.1 3 Oeste 8 Oeste 0 951.9 -0.6 86
2019-10-26 02:00:00 12.1 0 Calma 13 Oeste 0 952.3 -0.2 83
2019-10-26 01:00:00 12.8 0 Calma 12 Oeste 0 952.6 0.1 81
2019-10-26 00:00:00 13.7 7 Oeste 10 Oeste 0 952.5 0.1 80
2019-10-25 23:00:00 13.8 0 Calma 6 Oeste 0 952.5 0.7 79
2019-10-25 22:00:00 14.8 2 Oeste 4 Oeste 0 952.5 1.2 75
2019-10-25 21:00:00 15.8 0 Calma 5 Nordeste 0 952.4 1.2 66
2019-10-25 20:00:00 18.1 0 Calma 6 Este 0 951.8 0.7 54
2019-10-25 19:00:00 21.7 0 Calma 12 Noroeste 0 951.3 -0.2 40
2019-10-25 18:00:00 22.7 5 Noroeste 15 Oeste 0 951.2 -0.6 35
2019-10-25 17:00:00 23.1 4 Oeste 17 Sudoeste 0 951.1 -1.6 36
2019-10-25 16:00:00 22.6 10 Sudoeste 19 Sudoeste 0 951.5 -1.8 39
2019-10-25 15:00:00 21.8 4 Noroeste 20 Sudoeste 0 951.8 -1.7 42
2019-10-25 14:00:00 20.6 5 Oeste 22 Sudoeste 0 952.7 -1 46
2019-10-25 13:00:00 18.9 12 Oeste 24 Sudoeste 0 953.3 -0.9 51
2019-10-25 12:00:00 17 15 Sudoeste 23 Sudoeste 0 953.5 -0.2 58
2019-10-25 11:00:00 15.1 13 Sudoeste 21 Sudoeste 0 953.7 -0.1 62
2019-10-25 10:00:00 12 3 Sudoeste 7 Sur 0 954.2 0.8 79
2019-10-25 09:00:00 9.9 5 Oeste 14 Sudoeste 0 953.7 0.2 85
2019-10-25 08:00:00 9.2 3 Noroeste 12 Oeste 0 953.8 0.4 83
2019-10-25 07:00:00 9.6 3 Oeste 15 Oeste 0 953.4 -0.1 82
2019-10-25 06:00:00 9.7 6 Sudoeste 13 Sudoeste 0 953.5 -0.2 82
2019-10-25 05:00:00 9.2 3 Sur 13 Sudoeste 0 953.4 -0.5 80
2019-10-25 04:00:00 9.9 2 Oeste 16 Sudoeste 0 953.5 -0.4 80
2019-10-25 03:00:00 10.2 12 Oeste 21 Oeste 0 953.7 0.2 80
2019-10-25 02:00:00 10.4 11 Oeste 18 Oeste 0 953.9 1.1 76
2019-10-25 01:00:00 11 8 Oeste 12 Oeste 0 953.9 1.4 76
2019-10-25 00:00:00 10.8 6 Noroeste 10 Oeste 0 953.5 1.5 75
2019-10-24 23:00:00 11.3 0 Calma 9 Sudeste 0 952.8 1.6 69
2019-10-24 22:00:00 12.8 4 Sudoeste 23 Oeste 0 952.5 2 61
2019-10-24 21:00:00 13.6 16 Oeste 25 Sudoeste 0 952 1.9 56
2019-10-24 20:00:00 14.4 18 Sudoeste 32 Sudoeste 0 951.2 1.9 50
2019-10-24 19:00:00 15.4 18 Sudoeste 32 Oeste 0 950.5 1.7 45
2019-10-24 18:00:00 16.1 18 Sudoeste 37 Sudoeste 0 950.1 1.4 44
2019-10-24 17:00:00 16.4 24 Sudoeste 40 Sudoeste 0 949.3 0.6 43
2019-10-24 16:00:00 16 23 Sudoeste 46 Sudoeste 0 948.8 -0.3 47
2019-10-24 15:00:00 15.7 20 Sudoeste 40 Oeste 0 948.7 -0.3 50
2019-10-24 14:00:00 14.6 22 Oeste 39 Oeste 0 948.7 0.2 55
2019-10-24 13:00:00 13.5 17 Oeste 36 Sudoeste 0 949.1 1.4 60
2019-10-24 12:00:00 12.7 19 Sudoeste 32 Sudoeste 0 949 2.7 68
2019-10-24 11:00:00 11.4 15 Oeste 32 Sudoeste 0 948.5 3.1 76
2019-10-24 10:00:00 11.1 16 Oeste 30 Sudoeste 0 947.7 2.9 82
2019-10-24 09:00:00 10.2 15 Oeste 27 Oeste 0 946.3 2.1 84
2019-10-24 08:00:00 10.1 9 Oeste 18 Oeste 0 945.4 1.7 84
2019-10-24 07:00:00 10.3 11 Oeste 20 Oeste 0 944.8 1.7 85
2019-10-24 06:00:00 10.3 10 Oeste 18 Sudoeste 0 944.2 1.4 87
2019-10-24 05:00:00 10.3 5 Oeste 15 Oeste 0 943.7 1.1 90
2019-10-24 04:00:00 9.4 5 Oeste 14 Sudoeste 0 943.1 0.6 95
2019-10-24 03:00:00 9 2 Sudoeste 4 Sur 0 942.8 0.3 96
2019-10-24 02:00:00 9.4 2 Sur 4 Sur 0 942.6 0.5 95
2019-10-24 01:00:00 9.1 0 Calma 6 Sur 0 942.5 0.8 95
2019-10-24 00:00:00 9 4 Sur 7 Sur 0.1 942.5 1.1 93
2019-10-23 23:00:00 9.2 0 Calma 3 Nordeste 0.3 942.1 1 92
2019-10-23 22:00:00 9.4 0 Calma 5 Nordeste 0.4 941.7 1.2 87
2019-10-23 21:00:00 9.5 0 Calma 5 Sudoeste 0.2 941.4 1 83
2019-10-23 20:00:00 9.9 3 Sudoeste 16 Sudoeste 0.2 941.1 1.1 72
2019-10-23 19:00:00 10.8 8 Oeste 18 Sudoeste 0 940.5 1.1 63
2019-10-23 18:00:00 11.1 13 Sudoeste 32 Sur 0 940.4 1.3 60
2019-10-23 17:00:00 12 15 Sudoeste 37 Sudoeste 0 940 0.9 57
2019-10-23 16:00:00 12.5 15 Sudoeste 33 Sudoeste 0 939.4 0.4 57
2019-10-23 15:00:00 12.8 13 Sur 32 Sudoeste 0 939.1 0.1 58
2019-10-23 14:00:00 13 15 Sudoeste 32 Sudoeste 0 939.1 -0.1 58
2019-10-23 13:00:00 12.9 8 Sudeste 14 Este 0 939 0.2 68
2019-10-23 12:00:00 12.9 4 Este 11 Sudeste 0 939 0.6 69
2019-10-23 11:00:00 10.9 0 Calma 5 Sudeste 0 939.2 1.1 88
2019-10-23 10:00:00 8.3 0 Calma 7 Nordeste 0 938.8 0.4 97
2019-10-23 09:00:00 6.4 0 Calma 6 Oeste 0 938.4 0.3 96
2019-10-23 08:00:00 6.6 3 Oeste 6 Oeste 0 938.1 0.4 95
2019-10-23 07:00:00 6.7 0 Calma 4 Noroeste 0 938.4 0.2 92
2019-10-23 06:00:00 7.5 3 Sur 23 Oeste 0 938.1 0.2 87
2019-10-23 05:00:00 8.6 12 Sudoeste 30 Oeste 0 937.7 -0.3 89
2019-10-23 04:00:00 8.8 9 Sudoeste 23 Sudoeste 0 938.2 0.1 97
2019-10-23 03:00:00 8.3 4 Sur 7 Sur 0 937.9 -0.6 97
2019-10-23 02:00:00 9 2 Sur 15 Oeste 0.1 938 -1.2 97
2019-10-23 01:00:00 9.2 6 Oeste 18 Oeste 0 938.1 -0.7 97
2019-10-23 00:00:00 9 9 Oeste 19 Oeste 1.6 938.5 0 97
2019-10-22 23:00:00 9.2 5 Sudoeste 12 Sudoeste 1.1 939.2 1.1 95
2019-10-22 22:00:00 9.4 10 Sudoeste 30 Sudoeste 0.1 938.8 0.1 95
2019-10-22 21:00:00 9.4 17 Oeste 34 Oeste 0.2 938.5 0 95
2019-10-22 20:00:00 9.5 16 Oeste 31 Oeste 0.2 938.1 -0.5 95
2019-10-22 19:00:00 9.7 13 Oeste 21 Oeste 0.1 938.7 -0.4 95
2019-10-22 18:00:00 10.5 10 Sudoeste 18 Oeste 0 938.5 -1.8 95
2019-10-22 17:00:00 10.3 6 Sudoeste 15 Sudoeste 0 938.6 -2.3 99
2019-10-22 16:00:00 9.9 8 Sur 13 Sur 0.6 939.1 -2.8 99
2019-10-22 15:00:00 9.3 4 Sur 10 Sudoeste 1.4 940.3 -2 99
2019-10-22 14:00:00 9.2 3 Oeste 8 Noroeste 1.7 940.9 -1.9 99
2019-10-22 13:00:00 8.8 4 Norte 26 Noroeste 3.1 941.9 -1.3 99
2019-10-22 12:00:00 9.2 8 Noroeste 17 Noroeste 4.4 942.3 -0.9 99
2019-10-22 11:00:00 9.2 10 Noroeste 17 Noroeste 7.5 942.8 0.3 99
2019-10-22 10:00:00 10.1 4 Oeste 9 Norte 4.2 943.2 0.5 99
2019-10-22 09:00:00 10.3 3 Norte 18 Norte 3.2 943.2 1 99
2019-10-22 08:00:00 10.7 13 Norte 21 Noroeste 6.7 942.5 -1.3 99
2019-10-22 07:00:00 10.7 3 Sur 10 Sur 2.5 942.7 -1.2 97
2019-10-22 06:00:00 10.9 9 Norte 15 Norte 1.3 942.2 -2.8 97
2019-10-22 05:00:00 11.1 6 Noroeste 17 Noroeste 0.2 943.8 -2.4 86
2019-10-22 04:00:00 11.2 11 Noroeste 17 Noroeste 0 943.9 -2.4 80
2019-10-22 03:00:00 10.9 7 Noroeste 14 Noroeste 0 945 -2 80
2019-10-22 02:00:00 10.5 4 Oeste 15 Oeste 0 946.2 -1.1 77
2019-10-22 01:00:00 10.8 7 Oeste 14 Oeste 0 946.3 -0.4 74
2019-10-22 00:00:00 11.4 7 Oeste 11 Oeste 0 947 0 71